Time,TemperatureF,DewpointF,PressureIn,WindDirection,WindDirectionDegrees,WindSpeedMPH,WindSpeedGustMPH,Humidity,HourlyPrecipIn,Conditions,Clouds,dailyrainin,SolarRadiationWatts/m^2,SoftwareType,DateUTC
2013-02-14 00:01:00,24.0,19.0,-100.00,NNW,335,0.0,2.0,82,0.00,,,0.00,0.000000,,2013-02-14 08:01:00,
2013-02-14 00:52:00,24.0,20.0,-100.00,NNW,335,1.0,2.0,84,-99.99,,,0.00,0.000000,,2013-02-14 08:52:00,
2013-02-14 01:01:00,24.0,20.0,-100.00,NNW,335,1.0,2.0,84,-99.99,,,0.00,0.000000,,2013-02-14 09:01:00,
2013-02-14 01:52:00,23.0,19.0,-100.00,NNW,335,0.0,2.0,83,-99.99,,,0.00,0.000000,,2013-02-14 09:52:00,
2013-02-14 02:02:00,23.0,19.0,-100.00,NNW,335,0.0,2.0,83,-99.99,,,0.00,0.000000,,2013-02-14 10:02:00,
2013-02-14 02:21:00,23.0,19.0,-100.00,NNW,335,0.0,2.0,83,-99.99,,,0.00,0.000000,,2013-02-14 10:21:00,
2013-02-14 02:31:00,23.0,19.0,-100.00,NNW,335,0.0,2.0,83,-99.99,,,0.00,0.000000,,2013-02-14 10:31:00,
2013-02-14 02:52:00,24.0,19.0,-100.00,NNW,335,0.0,2.0,80,-99.99,,,0.00,0.000000,,2013-02-14 10:52:00,
2013-02-14 03:01:00,24.0,19.0,-100.00,NNW,335,0.0,2.0,80,-99.99,,,0.00,0.000000,,2013-02-14 11:01:00,
2013-02-14 03:52:00,28.0,19.0,-100.00,NNW,335,0.0,2.0,69,-99.99,,,0.00,0.000000,,2013-02-14 11:52:00,
2013-02-14 04:01:00,28.0,19.0,-100.00,NNW,335,0.0,2.0,69,-99.99,,,0.00,0.000000,,2013-02-14 12:01:00,
2013-02-14 04:11:00,28.0,19.0,-100.00,NNW,335,0.0,2.0,69,-99.99,,,0.00,0.000000,,2013-02-14 12:11:00,
2013-02-14 04:22:00,28.0,19.0,-100.00,NNW,335,0.0,2.0,69,-99.99,,,0.00,0.000000,,2013-02-14 12:22:00,
2013-02-14 04:31:00,28.0,19.0,-100.00,NNW,335,0.0,2.0,69,-99.99,,,0.00,0.000000,,2013-02-14 12:31:00,
2013-02-14 04:53:00,28.0,20.0,-100.00,NNW,335,0.0,2.0,73,0.00,,,-99.99,0.000000,,2013-02-14 12:53:00,
2013-02-14 05:01:00,28.0,20.0,-100.00,NNW,335,0.0,2.0,73,0.00,,,-99.99,0.000000,,2013-02-14 13:01:00,
2013-02-14 05:11:00,28.0,20.0,-100.00,NNW,335,0.0,2.0,73,0.00,,,-99.99,0.000000,,2013-02-14 13:11:00,
2013-02-14 05:21:00,28.0,20.0,-100.00,NNW,335,0.0,2.0,73,0.00,,,-99.99,0.000000,,2013-02-14 13:21:00,
2013-02-14 05:31:00,28.0,20.0,-100.00,NNW,335,0.0,2.0,73,0.00,,,-99.99,0.000000,,2013-02-14 13:31:00,
2013-02-14 05:51:00,31.0,23.0,-100.00,NNW,335,1.0,2.0,71,0.00,,,0.00,0.000000,,2013-02-14 13:51:00,
2013-02-14 06:01:00,31.0,23.0,-100.00,NNW,335,1.0,2.0,71,0.00,,,0.00,0.000000,,2013-02-14 14:01:00,
2013-02-14 06:11:00,31.0,23.0,-100.00,NNW,335,1.0,2.0,71,0.00,,,0.00,0.000000,,2013-02-14 14:11:00,
2013-02-14 06:21:00,31.0,23.0,-100.00,NNW,335,1.0,2.0,71,0.00,,,0.00,0.000000,,2013-02-14 14:21:00,
2013-02-14 06:31:00,31.0,23.0,-100.00,NNW,335,1.0,2.0,71,0.00,,,0.00,0.000000,,2013-02-14 14:31:00,
2013-02-14 06:52:00,28.0,21.0,-100.00,NNW,335,0.0,3.0,74,0.00,,,0.00,0.000000,,2013-02-14 14:52:00,
2013-02-14 07:01:00,28.0,21.0,-100.00,NNW,335,0.0,3.0,74,0.00,,,0.00,0.000000,,2013-02-14 15:01:00,
2013-02-14 07:11:00,28.0,21.0,-100.00,NNW,335,0.0,3.0,74,0.00,,,0.00,0.000000,,2013-02-14 15:11:00,
2013-02-14 07:21:00,28.0,21.0,-100.00,NNW,335,0.0,3.0,74,0.00,,,0.00,0.000000,,2013-02-14 15:21:00,
2013-02-14 07:31:00,28.0,21.0,-100.00,NNW,335,0.0,3.0,74,0.00,,,0.00,0.000000,,2013-02-14 15:31:00,
2013-02-14 07:52:00,28.0,23.0,-100.00,NNW,335,1.0,3.0,80,0.00,,,0.00,4.000000,,2013-02-14 15:52:00,
2013-02-14 08:01:00,28.0,23.0,-100.00,NNW,335,1.0,3.0,80,0.00,,,0.00,4.000000,,2013-02-14 16:01:00,
2013-02-14 08:11:00,28.0,23.0,-100.00,NNW,335,1.0,3.0,80,0.00,,,0.00,4.000000,,2013-02-14 16:11:00,
2013-02-14 08:21:00,28.0,23.0,-100.00,NNW,335,1.0,3.0,80,0.00,,,0.00,4.000000,,2013-02-14 16:21:00,
2013-02-14 08:31:00,28.0,23.0,-100.00,NNW,335,1.0,3.0,80,0.00,,,0.00,4.000000,,2013-02-14 16:31:00,
2013-02-14 08:52:00,31.0,24.0,-100.00,NNW,335,1.0,4.0,74,0.00,,,0.00,41.000000,,2013-02-14 16:52:00,
2013-02-14 09:01:00,31.0,24.0,-100.00,NNW,335,1.0,4.0,74,0.00,,,0.00,41.000000,,2013-02-14 17:01:00,
2013-02-14 09:11:00,31.0,24.0,-100.00,NNW,335,1.0,4.0,74,0.00,,,0.00,41.000000,,2013-02-14 17:11:00,
2013-02-14 09:21:00,31.0,24.0,-100.00,NNW,335,1.0,4.0,74,0.00,,,0.00,41.000000,,2013-02-14 17:21:00,
2013-02-14 09:31:00,31.0,24.0,-100.00,NNW,335,1.0,4.0,74,0.00,,,0.00,41.000000,,2013-02-14 17:31:00,
2013-02-14 09:52:00,34.0,26.0,-100.00,NNW,335,1.0,4.0,71,0.00,,,0.00,94.000000,,2013-02-14 17:52:00,
2013-02-14 10:01:00,34.0,26.0,-100.00,NNW,335,1.0,4.0,71,0.00,,,0.00,94.000000,,2013-02-14 18:01:00,
2013-02-14 10:11:00,34.0,26.0,-100.00,NNW,335,1.0,4.0,71,0.00,,,0.00,94.000000,,2013-02-14 18:11:00,
2013-02-14 10:22:00,34.0,26.0,-100.00,NNW,335,1.0,4.0,71,0.00,,,0.00,94.000000,,2013-02-14 18:22:00,
2013-02-14 10:31:00,34.0,26.0,-100.00,NNW,335,1.0,4.0,71,0.00,,,0.00,94.000000,,2013-02-14 18:31:00,
2013-02-14 10:52:00,37.0,26.0,-100.00,NNW,335,2.0,4.0,64,0.00,,,0.00,161.000000,,2013-02-14 18:52:00,
2013-02-14 11:02:00,37.0,26.0,-100.00,NNW,335,2.0,4.0,64,0.00,,,0.00,161.000000,,2013-02-14 19:02:00,
2013-02-14 11:11:00,37.0,26.0,-100.00,NNW,335,2.0,4.0,64,0.00,,,0.00,161.000000,,2013-02-14 19:11:00,
2013-02-14 11:21:00,37.0,26.0,-100.00,NNW,335,2.0,4.0,64,0.00,,,0.00,161.000000,,2013-02-14 19:21:00,
2013-02-14 11:31:00,37.0,26.0,-100.00,NNW,335,2.0,4.0,64,0.00,,,0.00,161.000000,,2013-02-14 19:31:00,
2013-02-14 11:52:00,37.0,27.0,-100.00,NNW,335,3.0,7.0,66,0.00,,,0.00,341.000000,,2013-02-14 19:52:00,
2013-02-14 12:01:00,37.0,27.0,-100.00,NNW,335,3.0,7.0,66,0.00,,,0.00,341.000000,,2013-02-14 20:01:00,
2013-02-14 12:11:00,37.0,27.0,-100.00,NNW,335,3.0,7.0,66,0.00,,,0.00,341.000000,,2013-02-14 20:11:00,
2013-02-14 12:21:00,37.0,27.0,-100.00,NNW,335,3.0,7.0,66,0.00,,,0.00,341.000000,,2013-02-14 20:21:00,
2013-02-14 12:31:00,37.0,27.0,-100.00,NNW,335,3.0,7.0,66,0.00,,,0.00,341.000000,,2013-02-14 20:31:00,
2013-02-14 12:52:00,43.0,28.0,-100.00,NNW,335,3.0,7.0,55,-99.99,,,0.00,480.000000,,2013-02-14 20:52:00,
2013-02-14 13:02:00,43.0,28.0,-100.00,NNW,335,3.0,7.0,55,-99.99,,,0.00,480.000000,,2013-02-14 21:02:00,
2013-02-14 13:11:00,43.0,28.0,-100.00,NNW,335,3.0,7.0,55,-99.99,,,0.00,480.000000,,2013-02-14 21:11:00,
2013-02-14 13:21:00,43.0,28.0,-100.00,NNW,335,3.0,7.0,55,-99.99,,,0.00,480.000000,,2013-02-14 21:21:00,
2013-02-14 13:31:00,43.0,28.0,-100.00,NNW,335,3.0,7.0,55,-99.99,,,0.00,480.000000,,2013-02-14 21:31:00,
2013-02-14 13:52:00,45.0,29.0,-100.00,NNW,335,2.0,7.0,53,0.00,,,0.00,480.000000,,2013-02-14 21:52:00,
2013-02-14 14:02:00,45.0,29.0,-100.00,NNW,335,2.0,7.0,53,0.00,,,0.00,480.000000,,2013-02-14 22:02:00,
2013-02-14 14:11:00,45.0,29.0,-100.00,NNW,335,2.0,7.0,53,0.00,,,0.00,480.000000,,2013-02-14 22:11:00,
2013-02-14 14:21:00,45.0,29.0,-100.00,NNW,335,2.0,7.0,53,0.00,,,0.00,480.000000,,2013-02-14 22:21:00,
2013-02-14 14:31:00,45.0,29.0,-100.00,NNW,335,2.0,7.0,53,0.00,,,0.00,480.000000,,2013-02-14 22:31:00,
2013-02-14 14:52:00,46.0,29.0,-100.00,NNW,335,3.0,7.0,51,0.00,,,0.00,410.000000,,2013-02-14 22:52:00,
2013-02-14 15:01:00,46.0,29.0,-100.00,NNW,335,3.0,7.0,51,0.00,,,0.00,410.000000,,2013-02-14 23:01:00,
2013-02-14 15:11:00,46.0,29.0,-100.00,NNW,335,3.0,7.0,51,0.00,,,0.00,410.000000,,2013-02-14 23:11:00,
2013-02-14 15:21:00,46.0,29.0,-100.00,NNW,335,3.0,7.0,51,0.00,,,0.00,410.000000,,2013-02-14 23:21:00,
2013-02-14 15:31:00,46.0,29.0,-100.00,NNW,335,3.0,7.0,51,0.00,,,0.00,410.000000,,2013-02-14 23:31:00,
2013-02-14 15:52:00,43.0,29.0,-100.00,NNW,335,2.0,7.0,57,0.00,,,0.00,272.000000,,2013-02-14 23:52:00,
2013-02-14 16:01:00,43.0,29.0,-100.00,NNW,335,2.0,7.0,57,0.00,,,0.00,272.000000,,2013-02-15 00:01:00,
2013-02-14 16:11:00,43.0,29.0,-100.00,NNW,335,2.0,7.0,57,0.00,,,0.00,272.000000,,2013-02-15 00:11:00,
2013-02-14 16:21:00,43.0,29.0,-100.00,NNW,335,2.0,7.0,57,0.00,,,0.00,272.000000,,2013-02-15 00:21:00,
2013-02-14 16:31:00,43.0,29.0,-100.00,NNW,335,2.0,7.0,57,0.00,,,0.00,272.000000,,2013-02-15 00:31:00,
2013-02-14 16:52:00,39.0,28.0,-100.00,NNW,335,1.0,7.0,65,0.00,,,0.00,124.000000,,2013-02-15 00:52:00,
2013-02-14 17:01:00,39.0,28.0,-100.00,NNW,335,1.0,7.0,65,0.00,,,0.00,124.000000,,2013-02-15 01:01:00,
2013-02-14 17:11:00,39.0,28.0,-100.00,NNW,335,1.0,7.0,65,0.00,,,0.00,124.000000,,2013-02-15 01:11:00,
2013-02-14 17:21:00,39.0,28.0,-100.00,NNW,335,1.0,7.0,65,0.00,,,0.00,124.000000,,2013-02-15 01:21:00,
2013-02-14 17:31:00,39.0,28.0,-100.00,NNW,335,1.0,7.0,65,0.00,,,0.00,124.000000,,2013-02-15 01:31:00,
2013-02-14 17:52:00,33.0,27.0,-100.00,NNW,335,2.0,5.0,79,0.00,,,0.00,18.000000,,2013-02-15 01:52:00,
2013-02-14 18:01:00,33.0,27.0,-100.00,NNW,335,2.0,5.0,79,0.00,,,0.00,18.000000,,2013-02-15 02:01:00,
2013-02-14 18:21:00,33.0,27.0,-100.00,NNW,335,2.0,5.0,79,0.00,,,0.00,18.000000,,2013-02-15 02:21:00,
2013-02-14 18:31:00,33.0,27.0,-100.00,NNW,335,2.0,5.0,79,0.00,,,0.00,18.000000,,2013-02-15 02:31:00,
2013-02-14 18:52:00,31.0,27.0,-100.00,NNW,335,0.0,6.0,84,0.00,,,0.00,0.000000,,2013-02-15 02:52:00,
2013-02-14 19:02:00,31.0,27.0,-100.00,NNW,335,0.0,6.0,84,0.00,,,0.00,0.000000,,2013-02-15 03:02:00,
2013-02-14 19:52:00,30.0,27.0,-100.00,NNW,335,1.0,3.0,89,0.00,,,0.00,0.000000,,2013-02-15 03:52:00,
2013-02-14 20:01:00,30.0,27.0,-100.00,NNW,335,1.0,3.0,89,0.00,,,0.00,0.000000,,2013-02-15 04:01:00,
2013-02-14 20:11:00,30.0,27.0,-100.00,NNW,335,1.0,3.0,89,0.00,,,0.00,0.000000,,2013-02-15 04:11:00,
2013-02-14 20:21:00,30.0,27.0,-100.00,NNW,335,1.0,3.0,89,0.00,,,0.00,0.000000,,2013-02-15 04:21:00,
2013-02-14 20:31:00,30.0,27.0,-100.00,NNW,335,1.0,3.0,89,0.00,,,0.00,0.000000,,2013-02-15 04:31:00,
2013-02-14 20:52:00,29.0,27.0,-100.00,NNW,335,1.0,3.0,91,0.00,,,0.00,0.000000,,2013-02-15 04:52:00,
2013-02-14 21:02:00,29.0,27.0,-100.00,NNW,335,1.0,3.0,91,0.00,,,0.00,0.000000,,2013-02-15 05:02:00,
2013-02-14 21:11:00,29.0,27.0,-100.00,NNW,335,1.0,3.0,91,0.00,,,0.00,0.000000,,2013-02-15 05:11:00,
2013-02-14 21:22:00,29.0,27.0,-100.00,NNW,335,1.0,3.0,91,0.00,,,0.00,0.000000,,2013-02-15 05:22:00,
2013-02-14 21:32:00,29.0,27.0,-100.00,NNW,335,1.0,3.0,91,0.00,,,0.00,0.000000,,2013-02-15 05:32:00,
2013-02-14 21:52:00,32.0,28.0,-100.00,NNW,335,1.0,5.0,86,0.00,,,0.00,0.000000,,2013-02-15 05:52:00,
2013-02-14 22:02:00,32.0,28.0,-100.00,NNW,335,1.0,5.0,86,0.00,,,0.00,0.000000,,2013-02-15 06:02:00,
2013-02-14 22:11:00,32.0,28.0,-100.00,NNW,335,1.0,5.0,86,0.00,,,0.00,0.000000,,2013-02-15 06:11:00,
2013-02-14 22:21:00,32.0,28.0,-100.00,NNW,335,1.0,5.0,86,0.00,,,0.00,0.000000,,2013-02-15 06:21:00,
2013-02-14 22:31:00,32.0,28.0,-100.00,NNW,335,1.0,5.0,86,0.00,,,0.00,0.000000,,2013-02-15 06:31:00,
2013-02-14 22:52:00,30.0,28.0,-100.00,NNW,335,0.0,3.0,92,0.00,,,0.00,0.000000,,2013-02-15 06:52:00,
2013-02-14 23:01:00,30.0,28.0,-100.00,NNW,335,0.0,3.0,92,0.00,,,0.00,0.000000,,2013-02-15 07:01:00,
2013-02-14 23:11:00,30.0,28.0,-100.00,NNW,335,0.0,3.0,92,0.00,,,0.00,0.000000,,2013-02-15 07:11:00,
2013-02-14 23:21:00,30.0,28.0,-100.00,NNW,335,0.0,3.0,92,0.00,,,0.00,0.000000,,2013-02-15 07:21:00,
2013-02-14 23:31:00,30.0,28.0,-100.00,NNW,335,0.0,3.0,92,0.00,,,0.00,0.000000,,2013-02-15 07:31:00,
2013-02-14 23:52:00,30.0,29.0,-100.00,NNW,335,0.0,2.0,95,0.00,,,0.00,0.000000,,2013-02-15 07:52:00,